createdAt,value
2023-05-06T00:00:02.322Z,15.78
2023-05-06T00:03:27.654Z,15.79
2023-05-06T00:06:53.659Z,15.8
2023-05-06T00:10:18.845Z,15.82
2023-05-06T00:13:44.148Z,15.84
2023-05-06T00:17:09.266Z,15.86
2023-05-06T00:20:34.530Z,15.87
2023-05-06T00:23:59.792Z,15.87
2023-05-06T00:27:25.017Z,15.87
2023-05-06T00:30:50.308Z,15.86
2023-05-06T00:34:15.430Z,15.84
2023-05-06T00:37:40.736Z,15.87
2023-05-06T00:41:05.950Z,15.86
2023-05-06T00:44:31.190Z,15.84
2023-05-06T00:47:56.452Z,15.81
2023-05-06T00:51:21.647Z,15.77
2023-05-06T00:54:46.895Z,15.74
2023-05-06T00:58:12.153Z,15.71
2023-05-06T01:01:37.436Z,15.67
2023-05-06T01:05:02.831Z,15.65
2023-05-06T01:08:27.832Z,15.64
2023-05-06T01:11:53.057Z,15.65
2023-05-06T01:15:18.266Z,15.6
2023-05-06T01:18:43.481Z,15.58
2023-05-06T01:22:08.791Z,15.55
2023-05-06T01:25:33.891Z,15.53
2023-05-06T01:28:59.680Z,15.47
2023-05-06T01:32:24.912Z,15.44
2023-05-06T01:35:50.105Z,15.41
2023-05-06T01:39:15.456Z,15.38
2023-05-06T01:42:40.559Z,15.35
2023-05-06T01:46:05.866Z,15.34
2023-05-06T01:49:31.077Z,15.35
2023-05-06T01:52:56.309Z,15.33
2023-05-06T01:56:21.621Z,15.32
2023-05-06T01:59:46.751Z,15.28
2023-05-06T02:03:12.094Z,15.25
2023-05-06T02:06:37.253Z,15.2
2023-05-06T02:10:02.487Z,15.16
2023-05-06T02:13:27.763Z,15.14
2023-05-06T02:16:53.666Z,15.13
2023-05-06T02:20:18.870Z,15.1
2023-05-06T02:23:44.090Z,15.1
2023-05-06T02:27:09.294Z,15.11
2023-05-06T02:30:34.655Z,15.11
2023-05-06T02:33:59.772Z,15.1
2023-05-06T02:37:24.992Z,15.1
2023-05-06T02:40:50.225Z,15.09
2023-05-06T02:44:15.418Z,15.07
2023-05-06T02:47:40.972Z,15.06
2023-05-06T02:51:05.868Z,15.06
2023-05-06T02:54:31.070Z,15.07
2023-05-06T02:57:56.265Z,15.06
2023-05-06T03:01:21.486Z,15.06
2023-05-06T03:04:46.772Z,15.04
2023-05-06T03:08:11.877Z,15.03
2023-05-06T03:11:37.093Z,15.01
2023-05-06T03:15:02.303Z,14.97
2023-05-06T03:18:27.508Z,14.93
2023-05-06T03:21:52.757Z,14.88
2023-05-06T03:25:17.921Z,14.85
2023-05-06T03:28:43.148Z,14.83
2023-05-06T03:32:08.415Z,14.82
2023-05-06T03:35:33.582Z,14.79
2023-05-06T03:38:58.876Z,14.78
2023-05-06T03:42:24.018Z,14.78
2023-05-06T03:45:49.260Z,14.77
2023-05-06T03:49:14.477Z,14.76
2023-05-06T03:52:39.674Z,14.73
2023-05-06T03:56:05.115Z,14.72
2023-05-06T03:59:30.134Z,14.72
2023-05-06T04:02:55.367Z,14.72
2023-05-06T04:06:20.533Z,14.72
2023-05-06T04:09:45.768Z,14.68
2023-05-06T04:13:11.211Z,14.68
2023-05-06T04:16:36.241Z,14.66
2023-05-06T04:20:01.476Z,14.64
2023-05-06T04:23:26.722Z,14.62
2023-05-06T04:26:51.919Z,14.6
2023-05-06T04:30:17.230Z,14.59
2023-05-06T04:33:42.323Z,14.61
2023-05-06T04:37:07.547Z,14.64
2023-05-06T04:40:32.716Z,14.65
2023-05-06T04:43:57.964Z,14.67
2023-05-06T04:47:23.284Z,14.68
2023-05-06T04:50:48.369Z,14.71
2023-05-06T04:54:13.596Z,14.74
2023-05-06T04:57:38.808Z,14.84
2023-05-06T05:01:04.023Z,14.94
2023-05-06T05:04:29.355Z,15.12
2023-05-06T05:07:54.462Z,15.29
2023-05-06T05:11:19.677Z,15.44
2023-05-06T05:14:44.916Z,15.5
2023-05-06T05:18:10.178Z,15.57
2023-05-06T05:21:35.442Z,15.67
2023-05-06T05:25:00.607Z,15.76
2023-05-06T05:28:25.766Z,15.88
2023-05-06T05:31:50.989Z,15.96
2023-05-06T05:35:16.210Z,16.08
2023-05-06T05:38:41.455Z,16.219999
2023-05-06T05:42:06.634Z,16.309999
2023-05-06T05:45:31.839Z,16.389999
2023-05-06T05:48:57.030Z,16.5
2023-05-06T05:52:22.238Z,16.629999
2023-05-06T05:55:47.587Z,16.709999
2023-05-06T05:59:12.730Z,16.84
2023-05-06T06:02:38.003Z,16.940001
2023-05-06T06:06:03.181Z,16.940001
2023-05-06T06:09:28.436Z,16.9
2023-05-06T06:12:53.697Z,16.83
2023-05-06T06:16:18.911Z,16.92
2023-05-06T06:19:44.151Z,16.91
2023-05-06T06:23:09.338Z,16.879999
2023-05-06T06:26:34.549Z,16.790001
2023-05-06T06:29:59.822Z,16.76
2023-05-06T06:33:25.018Z,16.75
2023-05-06T06:36:50.214Z,16.700001
2023-05-06T06:40:15.459Z,16.610001
2023-05-06T06:43:40.661Z,16.559999
2023-05-06T06:47:06.012Z,16.700001
2023-05-06T06:50:31.122Z,16.870001
2023-05-06T06:53:56.318Z,16.9
2023-05-06T06:57:21.565Z,16.82
2023-05-06T07:00:47.807Z,16.700001
2023-05-06T07:04:13.223Z,16.73
2023-05-06T07:07:38.320Z,16.719999
2023-05-06T07:11:03.546Z,16.68
2023-05-06T07:14:28.821Z,16.610001
2023-05-06T07:17:54.043Z,16.51
2023-05-06T07:21:19.341Z,16.549999
2023-05-06T07:24:44.558Z,16.66
2023-05-06T07:28:09.826Z,16.83
2023-05-06T07:31:35.078Z,17.030001
2023-05-06T07:35:00.178Z,17.280001
2023-05-06T07:38:25.377Z,17.559999
2023-05-06T07:41:50.533Z,17.700001
2023-05-06T07:45:15.731Z,17.65
2023-05-06T07:48:40.959Z,17.629999
2023-05-06T07:52:06.181Z,17.700001
2023-05-06T07:55:32.776Z,17.84
2023-05-06T07:58:56.688Z,17.889999
2023-05-06T08:02:22.111Z,17.98
2023-05-06T08:05:47.148Z,18
2023-05-06T08:09:14.831Z,17.860001
2023-05-06T08:12:37.746Z,17.940001
2023-05-06T08:16:02.873Z,18.030001
2023-05-06T08:19:28.085Z,18
2023-05-06T08:22:53.310Z,18.059999
2023-05-06T08:26:18.512Z,18.049999
2023-05-06T08:29:43.867Z,18.110001
2023-05-06T08:33:09.055Z,18.26
2023-05-06T08:36:34.309Z,18.280001
2023-05-06T08:40:00.058Z,18.32
2023-05-06T08:43:24.788Z,18.299999
2023-05-06T08:46:50.176Z,18.299999
2023-05-06T08:50:15.371Z,18.4
2023-05-06T08:53:40.666Z,18.51
2023-05-06T08:57:05.874Z,18.51
2023-05-06T09:00:31.129Z,18.51
2023-05-06T09:03:56.485Z,18.559999
2023-05-06T09:07:21.576Z,18.57
2023-05-06T09:10:46.771Z,18.639999
2023-05-06T09:14:11.979Z,18.709999
2023-05-06T09:17:37.160Z,18.83
2023-05-06T09:21:02.493Z,18.959999
2023-05-06T09:24:27.647Z,19.07
2023-05-06T09:27:52.845Z,19.25
2023-05-06T09:31:18.075Z,19.389999
2023-05-06T09:34:43.224Z,19.530001
2023-05-06T09:38:08.496Z,19.66
2023-05-06T09:41:33.625Z,19.84
2023-05-06T09:45:01.203Z,20.030001
2023-05-06T09:48:24.076Z,20.25
2023-05-06T09:51:49.302Z,20.379999
2023-05-06T09:55:14.548Z,20.459999
2023-05-06T09:58:39.757Z,20.450001
2023-05-06T10:02:05.049Z,20.389999
2023-05-06T10:05:30.289Z,20.450001
2023-05-06T10:08:55.518Z,20.549999
2023-05-06T10:12:20.894Z,20.73
2023-05-06T10:15:46.255Z,20.889999
2023-05-06T10:19:11.474Z,21.09
2023-05-06T10:22:36.685Z,21.26
2023-05-06T10:26:01.984Z,21.370001
2023-05-06T10:29:27.370Z,21.440001
2023-05-06T10:32:52.545Z,21.52
2023-05-06T10:36:17.724Z,21.49
2023-05-06T10:39:42.968Z,21.549999
2023-05-06T10:43:08.191Z,21.629999
2023-05-06T10:46:33.559Z,21.709999
2023-05-06T10:49:58.706Z,21.76
2023-05-06T10:53:23.982Z,21.76
2023-05-06T10:56:49.350Z,21.73
2023-05-06T11:00:14.607Z,21.780001
2023-05-06T11:03:39.949Z,21.780001
2023-05-06T11:07:05.080Z,21.58
2023-05-06T11:10:30.338Z,21.52
2023-05-06T11:13:55.537Z,21.59
2023-05-06T11:17:20.794Z,21.68
2023-05-06T11:20:46.081Z,21.530001
2023-05-06T11:24:11.163Z,21.200001
2023-05-06T11:27:36.364Z,21.08
2023-05-06T11:31:01.647Z,21.18
2023-05-06T11:34:26.860Z,21.360001
2023-05-06T11:37:52.200Z,21.48
2023-05-06T11:41:17.332Z,21.389999
2023-05-06T11:44:42.601Z,21.389999
2023-05-06T11:48:07.840Z,21.379999
2023-05-06T11:51:33.085Z,21.190001
2023-05-06T11:54:58.450Z,21.110001
2023-05-06T11:58:24.084Z,21.17
2023-05-06T12:01:49.327Z,21.24
2023-05-06T12:05:14.604Z,21.290001
2023-05-06T12:08:39.887Z,21.48
2023-05-06T12:12:05.285Z,21.49
2023-05-06T12:15:30.347Z,21.200001
2023-05-06T12:18:55.623Z,20.91
2023-05-06T12:22:20.881Z,20.67
2023-05-06T12:25:46.067Z,20.41
2023-05-06T12:29:11.354Z,20.209999
2023-05-06T12:32:36.500Z,20.110001
2023-05-06T12:36:01.718Z,20.030001
2023-05-06T12:39:26.930Z,19.959999
2023-05-06T12:42:52.197Z,19.959999
2023-05-06T12:46:17.691Z,20.040001
2023-05-06T12:49:42.749Z,20.35
2023-05-06T12:53:08.024Z,20.629999
2023-05-06T12:56:33.272Z,20.75
2023-05-06T12:59:58.536Z,20.66
2023-05-06T13:03:23.992Z,20.5
2023-05-06T13:06:50.380Z,20.290001
2023-05-06T13:10:15.742Z,20.129999
2023-05-06T13:13:40.820Z,20.02
2023-05-06T13:17:06.095Z,20.01
2023-05-06T13:20:31.306Z,20.18
2023-05-06T13:23:56.474Z,20.440001
2023-05-06T13:27:21.677Z,20.66
2023-05-06T13:30:46.922Z,20.889999
2023-05-06T13:34:12.205Z,20.82
2023-05-06T13:37:37.524Z,20.73
2023-05-06T13:41:02.634Z,20.6
2023-05-06T13:44:27.839Z,20.5
2023-05-06T13:47:53.147Z,20.41
2023-05-06T13:51:18.255Z,20.41
2023-05-06T13:54:43.591Z,20.370001
2023-05-06T13:58:08.685Z,20.360001
2023-05-06T14:01:34.070Z,20.34
2023-05-06T14:04:59.323Z,20.27
2023-05-06T14:08:24.525Z,20.25
2023-05-06T14:11:49.816Z,20.15
2023-05-06T14:15:18.144Z,20.07
2023-05-06T14:18:43.358Z,19.99
2023-05-06T14:22:08.653Z,19.889999
2023-05-06T14:25:33.886Z,19.780001
2023-05-06T14:28:59.145Z,19.66
2023-05-06T14:32:24.390Z,19.6
2023-05-06T14:35:50.869Z,19.549999
2023-05-06T14:39:14.876Z,19.540001
2023-05-06T14:42:40.148Z,19.51
2023-05-06T14:46:05.401Z,19.51
2023-05-06T14:49:30.609Z,19.540001
2023-05-06T14:52:55.853Z,19.51
2023-05-06T14:56:21.128Z,19.49
2023-05-06T14:59:46.381Z,19.51
2023-05-06T15:03:11.723Z,19.530001
2023-05-06T15:06:36.872Z,19.530001
2023-05-06T15:10:02.103Z,19.540001
2023-05-06T15:44:58.762Z,17.43
2023-05-06T15:48:24.841Z,18.450001
2023-05-06T15:51:50.056Z,18.68
2023-05-06T15:55:15.343Z,18.870001
2023-05-06T15:58:40.521Z,19
2023-05-06T16:05:31.028Z,19.120001
2023-05-06T16:08:56.231Z,19.15
2023-05-06T16:12:21.488Z,19.18
2023-05-06T16:15:46.710Z,19.17
2023-05-06T16:19:12.035Z,19.15
2023-05-06T16:22:39.261Z,19.190001
2023-05-06T16:26:02.390Z,19.219999
2023-05-06T16:29:27.651Z,19.25
2023-05-06T16:32:52.901Z,19.32
2023-05-06T16:36:18.198Z,19.35
2023-05-06T16:39:43.377Z,19.43
2023-05-06T16:43:08.592Z,19.450001
2023-05-06T16:46:33.882Z,19.35
2023-05-06T16:49:59.081Z,19.27
2023-05-06T16:53:24.400Z,19.16
2023-05-06T16:56:52.365Z,19.07
2023-05-06T17:00:14.736Z,18.969999
2023-05-06T17:03:39.971Z,18.889999
2023-05-06T17:07:05.195Z,18.83
2023-05-06T17:10:30.444Z,18.799999
2023-05-06T17:13:55.662Z,18.790001
2023-05-06T17:17:22.485Z,18.76
2023-05-06T17:20:55.601Z,18.700001
2023-05-06T17:24:12.927Z,18.59
2023-05-06T17:27:38.820Z,18.42
2023-05-06T17:31:03.901Z,18.280001
2023-05-06T17:34:29.340Z,18.110001
2023-05-06T17:37:54.323Z,17.969999
2023-05-06T17:41:19.577Z,17.860001
2023-05-06T17:44:44.926Z,17.77
2023-05-06T17:48:10.221Z,17.700001
2023-05-06T17:51:35.502Z,17.67
2023-05-06T17:55:11.137Z,17.58
2023-05-06T17:58:26.049Z,17.469999
2023-05-06T18:01:51.355Z,17.309999
2023-05-06T18:05:17.543Z,17.16
2023-05-06T18:08:42.788Z,17.059999
2023-05-06T18:12:08.056Z,17
2023-05-06T18:15:33.342Z,16.92
2023-05-06T18:18:58.797Z,16.82
2023-05-06T18:22:24.200Z,16.75
2023-05-06T18:25:49.522Z,16.66
2023-05-06T18:29:14.943Z,16.559999
2023-05-06T18:32:41.460Z,16.48
2023-05-06T18:36:06.916Z,16.42
2023-05-06T18:39:32.094Z,16.360001
2023-05-06T18:42:57.435Z,16.33
2023-05-06T18:46:22.948Z,16.32
2023-05-06T18:49:50.249Z,16.309999
2023-05-06T18:53:15.553Z,16.27
2023-05-06T18:56:40.886Z,16.25
2023-05-06T19:00:06.196Z,16.219999
2023-05-06T19:03:32.326Z,16.17
2023-05-06T19:06:58.958Z,16.09
2023-05-06T19:10:24.856Z,16.030001
2023-05-06T19:13:51.081Z,15.98
2023-05-06T19:17:16.737Z,15.9
2023-05-06T19:20:42.388Z,15.86
2023-05-06T19:24:08.243Z,15.87
2023-05-06T19:27:34.271Z,15.83
2023-05-06T19:31:00.046Z,15.81
2023-05-06T19:34:26.734Z,15.81
2023-05-06T19:37:52.277Z,15.78
2023-05-06T19:41:17.857Z,15.71
2023-05-06T19:44:43.932Z,15.64
2023-05-06T19:48:09.275Z,15.53
2023-05-06T19:51:34.832Z,15.44
2023-05-06T19:55:00.755Z,15.38
2023-05-06T19:58:26.375Z,15.35
2023-05-06T20:01:52.548Z,15.27
2023-05-06T20:05:19.897Z,15.21
2023-05-06T20:08:49.032Z,15.18
2023-05-06T20:12:30.958Z,15.11
2023-05-06T20:16:00.230Z,15.05
2023-05-06T20:19:26.185Z,14.96
2023-05-06T20:22:51.352Z,14.91
2023-05-06T20:26:16.678Z,14.8
2023-05-06T20:29:42.015Z,14.76
2023-05-06T20:33:07.384Z,14.68
2023-05-06T20:36:32.654Z,14.6
2023-05-06T20:39:57.823Z,14.5
2023-05-06T20:43:23.113Z,14.38
2023-05-06T20:46:48.377Z,14.28
2023-05-06T20:50:13.585Z,14.2
2023-05-06T20:53:39.835Z,14.15
2023-05-06T20:57:04.984Z,14.09
2023-05-06T21:00:30.219Z,14.09
2023-05-06T21:03:55.453Z,14.12
2023-05-06T21:07:20.625Z,14.1
2023-05-06T21:10:45.940Z,14.06
2023-05-06T21:14:11.093Z,14.03
2023-05-06T21:17:36.366Z,14.06
2023-05-06T21:21:01.507Z,14.11
2023-05-06T21:24:26.757Z,14.13
2023-05-06T21:27:52.114Z,14.15
2023-05-06T21:31:17.324Z,14.17
2023-05-06T21:34:42.567Z,14.18
2023-05-06T21:38:07.821Z,14.19
2023-05-06T21:41:33.013Z,14.17
2023-05-06T21:44:58.377Z,14.16
2023-05-06T21:48:23.432Z,14.13
2023-05-06T21:51:48.677Z,14.11
2023-05-06T21:55:13.954Z,14.09
2023-05-06T21:58:39.135Z,14.04
2023-05-06T22:02:04.449Z,14.02
2023-05-06T22:05:29.529Z,13.96
2023-05-06T22:08:54.788Z,13.93
2023-05-06T22:12:19.993Z,13.92
2023-05-06T22:15:45.254Z,13.93
2023-05-06T22:19:10.526Z,13.94
2023-05-06T22:22:35.634Z,13.96
2023-05-06T22:26:00.827Z,13.98
2023-05-06T22:29:26.102Z,13.95
2023-05-06T22:32:51.385Z,13.94
2023-05-06T22:36:16.741Z,13.92
2023-05-06T22:39:41.825Z,13.9
2023-05-06T22:43:07.058Z,13.92
2023-05-06T22:46:32.349Z,13.92
2023-05-06T22:49:57.530Z,13.9
2023-05-06T22:53:22.754Z,13.88
2023-05-06T22:56:47.961Z,13.85
2023-05-06T23:00:13.195Z,13.84
2023-05-06T23:03:38.420Z,13.86
2023-05-06T23:07:03.619Z,13.83
2023-05-06T23:10:28.849Z,13.82
2023-05-06T23:13:54.047Z,13.87
2023-05-06T23:17:19.255Z,13.86
2023-05-06T23:20:44.526Z,13.83
2023-05-06T23:24:09.741Z,13.82
2023-05-06T23:27:35.065Z,13.78
2023-05-06T23:31:00.268Z,13.7
2023-05-06T23:34:25.364Z,13.63
2023-05-06T23:37:50.573Z,13.58
2023-05-06T23:41:15.828Z,13.52
2023-05-06T23:44:41.130Z,13.48
2023-05-06T23:48:06.327Z,13.41
2023-05-06T23:51:31.509Z,13.4
2023-05-06T23:54:56.703Z,13.46
2023-05-06T23:58:21.911Z,13.45
